ěÝzenÝ letovÚho provozu ╚eskÚ republiky
Letiste: LKNA Aktualizace: 19.01.2021 14:58:23  UTC
 METAR LKNA 19.01. 15:00 ...
METAR LKNA 191500Z 17010KT CAVOK 01/M04 Q1012 NOSIG RMK BLU BLU=
 TAF LKNA 19.01. 11:00 ...
TAF LKNA 191100Z 1912/2012 23008KT 9999 BKN020      TEMPO 1912/1914 23012KT SCT040      TEMPO 1916/2003 3000 SN BKN007      PROB30 TEMPO 1917/2003 5000 SNRA BR BKN015      BECMG 2005/2007 BKN040      PROB30 2007/2012 CAVOK=